Boston, Massachusetts
Traffic Map
Current Weather Conditions
Boston, Massachusetts
Clear
Clear
74°
Feels Like: 74°
Wind Chill: 74° Ceiling: Unl
Heat Index: 74° Visibility: 10mi
Dew Point: 52° Wind: 7mph
Humidity: 46% Direction: 140° (SE)
Pressure: 29.97in Gusts: 0mph
Raw Report DataKBOS 251554Z 14006KT 10SM CLR 23/11 A2997 RMK AO2 SLP148 T02330111
Traffic Incident Summary
Active as of:
Severity:
Category:
InformationThere was an issue retrieving the traffic information for this location. Please try a different location or try again shortly.
Advertisements
Track Severe Weather on mobile